Time;durP1;ratioP1;P1;durP2;ratioP2;P2;SDS_P1;SDS_P2;PMS_P1;PMS_P2;Temp;Humidity;BMP_temperature;BMP_pressure;BME280_temperature;BME280_humidity;BME280_pressure;Samples;Min_cycle;Max_cycle;Signal;HPM_P1;HPM_P2
2021/09/19 00:01:22;;;;;;;4.47;4.07;;;16.20;99.90;;;;;;5134336;27;20472;-68
2021/09/19 00:03:49;;;;;;;4.73;4.20;;;16.20;99.90;;;;;;5134749;27;20468;-69
2021/09/19 00:06:16;;;;;;;4.80;4.30;;;16.20;99.90;;;;;;5134026;27;20948;-68
2021/09/19 00:08:44;;;;;;;4.97;4.50;;;16.10;99.90;;;;;;5134934;27;20869;-68
2021/09/19 00:11:11;;;;;;;4.00;3.70;;;16.10;99.90;;;;;;5133438;27;20469;-68
2021/09/19 00:13:38;;;;;;;5.00;4.30;;;16.10;99.90;;;;;;5123070;27;20535;-68
2021/09/19 00:16:05;;;;;;;5.07;4.10;;;16.10;99.90;;;;;;5131883;27;20471;-68
2021/09/19 00:18:32;;;;;;;4.07;3.77;;;16.10;99.90;;;;;;5133860;27;20468;-68
2021/09/19 00:21:05;;;;;;;4.50;4.10;;;16.10;99.90;;;;;;5134240;27;20478;-68
2021/09/19 00:23:32;;;;;;;6.17;4.90;;;16.10;99.90;;;;;;5134017;27;20467;-68
2021/09/19 00:26:00;;;;;;;4.30;3.90;;;16.00;99.90;;;;;;5134372;27;20465;-68
2021/09/19 00:28:27;;;;;;;4.13;3.50;;;16.00;99.90;;;;;;5133847;27;20460;-68
2021/09/19 00:30:54;;;;;;;5.60;4.53;;;16.00;99.90;;;;;;5134255;27;20986;-68
2021/09/19 00:33:21;;;;;;;8.53;4.47;;;16.00;99.90;;;;;;5133667;27;20466;-68
2021/09/19 00:35:47;;;;;;;5.13;4.03;;;16.00;99.90;;;;;;5134254;27;20456;-67
2021/09/19 00:38:14;;;;;;;3.83;3.53;;;16.00;99.90;;;;;;5134085;27;20466;-68
2021/09/19 00:40:41;;;;;;;4.30;3.90;;;16.00;99.90;;;;;;5133582;27;20455;-67
2021/09/19 00:43:09;;;;;;;3.77;3.47;;;15.90;99.90;;;;;;5133065;27;20467;-68
2021/09/19 00:45:36;;;;;;;4.70;3.77;;;16.00;99.90;;;;;;5133518;27;20501;-68
2021/09/19 00:48:03;;;;;;;4.70;3.90;;;15.90;99.90;;;;;;5134099;27;20474;-68
2021/09/19 00:50:30;;;;;;;5.20;4.70;;;15.90;99.90;;;;;;5133363;27;20487;-68
2021/09/19 00:52:58;;;;;;;4.70;3.63;;;15.90;99.90;;;;;;5134006;27;20481;-67
2021/09/19 00:55:25;;;;;;;5.90;4.27;;;16.00;99.90;;;;;;5133186;27;20812;-68
2021/09/19 00:57:54;;;;;;;4.43;4.03;;;15.90;99.90;;;;;;5134004;27;20462;-68
2021/09/19 01:00:25;;;;;;;4.87;4.00;;;15.90;99.90;;;;;;5120109;27;20464;-68
2021/09/19 01:02:53;;;;;;;5.13;4.40;;;15.90;99.90;;;;;;5133620;27;20469;-68
2021/09/19 01:05:20;;;;;;;4.30;3.90;;;15.90;99.90;;;;;;5133006;27;20467;-67
2021/09/19 01:07:48;;;;;;;4.67;4.27;;;15.90;99.90;;;;;;5133704;27;20462;-68
2021/09/19 01:10:16;;;;;;;5.47;4.47;;;15.90;99.90;;;;;;5133627;27;20472;-68
2021/09/19 01:12:44;;;;;;;5.73;4.90;;;15.90;99.90;;;;;;5125702;27;20459;-68
2021/09/19 01:15:12;;;;;;;4.90;4.40;;;15.90;99.90;;;;;;5110978;27;20478;-67
2021/09/19 01:17:42;;;;;;;6.50;4.20;;;15.80;99.90;;;;;;5110049;27;20867;-68
2021/09/19 01:20:13;;;;;;;5.27;4.23;;;15.90;99.90;;;;;;5112087;27;20475;-68
2021/09/19 01:22:42;;;;;;;4.50;3.90;;;15.90;99.90;;;;;;5111972;27;20820;-68
2021/09/19 01:25:13;;;;;;;5.50;4.60;;;15.90;99.90;;;;;;5111668;27;20475;-68
2021/09/19 01:27:40;;;;;;;3.80;3.50;;;15.90;99.90;;;;;;5110213;27;20524;-68
2021/09/19 01:30:09;;;;;;;5.00;4.57;;;15.90;99.90;;;;;;5111152;27;20468;-68
2021/09/19 01:32:40;;;;;;;5.20;4.13;;;15.90;99.90;;;;;;5110736;27;20478;-68
2021/09/19 01:35:08;;;;;;;4.67;4.27;;;15.90;99.90;;;;;;5110979;27;20469;-69
2021/09/19 01:37:35;;;;;;;5.27;3.63;;;15.90;99.90;;;;;;5111027;27;20461;-68
2021/09/19 01:40:02;;;;;;;3.50;3.20;;;15.90;99.90;;;;;;5131615;27;20467;-68
2021/09/19 01:42:30;;;;;;;6.00;4.20;;;15.90;99.90;;;;;;5132949;27;20490;-68
2021/09/19 01:44:57;;;;;;;5.77;5.10;;;15.90;99.90;;;;;;5133467;27;20462;-68
2021/09/19 01:47:24;;;;;;;4.93;4.53;;;15.80;99.90;;;;;;5132893;27;20501;-68
2021/09/19 01:49:52;;;;;;;4.93;4.53;;;15.80;99.90;;;;;;5133368;27;20801;-68
2021/09/19 01:52:21;;;;;;;3.80;3.50;;;15.80;99.90;;;;;;5133339;27;20459;-68
2021/09/19 01:54:48;;;;;;;4.53;4.23;;;15.80;99.90;;;;;;5135742;27;20894;-68
2021/09/19 01:57:17;;;;;;;4.17;3.83;;;15.90;99.90;;;;;;5137377;27;20991;-68
2021/09/19 01:59:46;;;;;;;5.40;4.43;;;15.90;99.90;;;;;;5136945;27;20476;-68
2021/09/19 02:02:12;;;;;;;5.07;4.17;;;15.90;99.90;;;;;;5137217;27;20464;-68
2021/09/19 02:04:41;;;;;;;4.30;3.90;;;15.80;99.90;;;;;;5136668;27;20467;-68
2021/09/19 02:07:08;;;;;;;5.63;4.07;;;15.80;99.90;;;;;;5137171;27;20463;-68
2021/09/19 02:09:35;;;;;;;4.63;4.23;;;15.80;99.90;;;;;;5136803;27;20999;-68
2021/09/19 02:12:02;;;;;;;5.93;5.33;;;15.70;99.90;;;;;;5137053;27;20467;-68
2021/09/19 02:14:29;;;;;;;4.90;4.50;;;15.70;99.90;;;;;;5136841;27;20465;-68
2021/09/19 02:16:57;;;;;;;4.20;3.80;;;15.70;99.90;;;;;;5136893;27;20571;-68
2021/09/19 02:19:24;;;;;;;5.10;4.40;;;15.70;99.90;;;;;;5136792;27;20467;-68
2021/09/19 02:21:51;;;;;;;4.60;3.73;;;15.70;99.90;;;;;;5136392;27;20473;-68
2021/09/19 02:24:18;;;;;;;4.20;3.90;;;15.70;99.90;;;;;;5136983;27;20460;-68
2021/09/19 02:26:45;;;;;;;5.10;4.37;;;15.70;99.90;;;;;;5136428;27;20459;-68
2021/09/19 02:29:12;;;;;;;5.00;4.60;;;15.70;99.90;;;;;;5136791;27;20480;-68
2021/09/19 02:31:38;;;;;;;5.87;4.70;;;15.70;99.90;;;;;;5136396;27;20462;-68
2021/09/19 02:34:07;;;;;;;4.60;4.20;;;15.70;99.90;;;;;;5136968;27;20455;-68
2021/09/19 02:36:33;;;;;;;8.70;4.03;;;15.70;99.90;;;;;;5136152;27;20467;-68
2021/09/19 02:39:00;;;;;;;6.20;3.90;;;15.70;99.90;;;;;;5136526;27;20463;-68
2021/09/19 02:41:27;;;;;;;7.10;4.37;;;15.60;99.90;;;;;;5136644;27;20957;-68
2021/09/19 02:43:54;;;;;;;5.50;4.03;;;15.70;99.90;;;;;;5136164;27;20452;-68
2021/09/19 02:46:21;;;;;;;4.50;4.13;;;15.60;99.90;;;;;;5136639;27;20472;-68
2021/09/19 02:48:47;;;;;;;4.17;3.87;;;15.60;99.90;;;;;;5136075;27;21011;-68
2021/09/19 02:51:16;;;;;;;5.10;4.60;;;15.60;99.90;;;;;;5136304;27;20470;-68
2021/09/19 02:53:42;;;;;;;4.47;4.17;;;15.70;99.90;;;;;;5136075;27;20456;-68
2021/09/19 02:56:09;;;;;;;4.93;4.00;;;15.60;99.90;;;;;;5136556;27;20466;-68
2021/09/19 02:58:37;;;;;;;4.33;3.70;;;15.60;99.90;;;;;;5135725;27;20467;-68
2021/09/19 03:01:04;;;;;;;4.37;3.97;;;15.60;99.90;;;;;;5136223;27;20460;-68
2021/09/19 03:03:32;;;;;;;4.70;3.90;;;15.60;99.90;;;;;;5135651;27;20790;-69
2021/09/19 03:05:58;;;;;;;4.43;4.03;;;15.60;99.90;;;;;;5135084;27;20455;-68
2021/09/19 03:08:27;;;;;;;4.60;3.77;;;15.60;99.90;;;;;;5136222;27;20853;-68
2021/09/19 03:10:53;;;;;;;3.77;3.40;;;15.60;99.90;;;;;;5135634;27;20455;-68
2021/09/19 03:13:20;;;;;;;3.93;3.63;;;15.60;99.90;;;;;;5135840;27;20470;-68
2021/09/19 03:15:47;;;;;;;4.70;4.20;;;15.60;99.90;;;;;;5135495;27;20474;-68
2021/09/19 03:18:14;;;;;;;4.23;3.83;;;15.60;99.90;;;;;;5135963;27;20464;-68
2021/09/19 03:20:41;;;;;;;4.07;3.50;;;15.60;99.90;;;;;;5135477;27;20971;-68
2021/09/19 03:23:08;;;;;;;5.17;3.67;;;15.60;99.90;;;;;;5135608;27;21003;-68
2021/09/19 03:25:36;;;;;;;4.37;3.97;;;15.60;99.90;;;;;;5135390;27;20462;-68
2021/09/19 03:28:03;;;;;;;4.60;4.20;;;15.60;99.90;;;;;;5135619;27;20464;-68
2021/09/19 03:30:30;;;;;;;6.20;4.50;;;15.60;99.90;;;;;;5135834;27;20497;-68
2021/09/19 03:32:56;;;;;;;6.00;3.90;;;15.60;99.90;;;;;;5135225;27;20462;-68
2021/09/19 03:35:23;;;;;;;3.90;3.60;;;15.60;99.90;;;;;;5135437;27;20475;-68
2021/09/19 03:37:50;;;;;;;4.80;4.20;;;15.60;99.90;;;;;;5135060;27;20961;-68
2021/09/19 03:40:17;;;;;;;4.50;4.10;;;15.60;99.90;;;;;;5135357;27;20463;-68
2021/09/19 03:42:45;;;;;;;5.33;4.80;;;15.60;99.90;;;;;;5134835;27;20473;-68
2021/09/19 03:45:13;;;;;;;4.93;3.73;;;15.60;99.90;;;;;;5135399;27;20470;-68
2021/09/19 03:47:40;;;;;;;4.03;3.67;;;15.60;99.90;;;;;;5134860;27;21003;-68
2021/09/19 03:50:09;;;;;;;4.67;4.27;;;15.50;99.90;;;;;;5135280;27;20797;-68
2021/09/19 03:52:36;;;;;;;5.20;4.37;;;15.50;99.90;;;;;;5134959;27;20455;-68
2021/09/19 03:55:03;;;;;;;4.30;3.97;;;15.50;99.90;;;;;;5135137;27;20474;-68
2021/09/19 03:57:30;;;;;;;4.20;3.80;;;15.50;99.90;;;;;;5135179;27;20483;-68
2021/09/19 03:59:58;;;;;;;6.43;4.20;;;15.50;99.90;;;;;;5134583;27;20463;-68
2021/09/19 04:02:25;;;;;;;5.27;4.77;;;15.50;99.90;;;;;;5134706;27;20478;-68
2021/09/19 04:04:51;;;;;;;6.73;4.70;;;15.50;99.90;;;;;;5134778;27;20490;-68
2021/09/19 04:07:18;;;;;;;4.90;4.20;;;15.50;99.90;;;;;;5134954;27;20474;-68
2021/09/19 04:09:45;;;;;;;5.70;4.30;;;15.50;99.90;;;;;;5134274;27;20467;-68
2021/09/19 04:12:12;;;;;;;5.20;4.63;;;15.50;99.90;;;;;;5134865;27;20987;-68
2021/09/19 04:14:39;;;;;;;5.47;4.90;;;15.50;99.90;;;;;;5134340;27;20459;-68
2021/09/19 04:17:07;;;;;;;5.00;4.50;;;15.50;99.90;;;;;;5134807;27;20467;-68
2021/09/19 04:19:34;;;;;;;5.00;4.50;;;15.50;99.90;;;;;;5134693;27;20463;-69
2021/09/19 04:22:00;;;;;;;5.90;4.80;;;15.40;99.90;;;;;;5134194;27;20460;-68
2021/09/19 04:24:27;;;;;;;4.77;4.20;;;15.40;99.90;;;;;;5134460;27;20459;-68
2021/09/19 04:26:54;;;;;;;6.67;4.30;;;15.50;99.90;;;;;;5134328;27;20455;-69
2021/09/19 04:29:21;;;;;;;5.30;4.27;;;15.40;99.90;;;;;;5134523;27;20494;-68
2021/09/19 04:31:48;;;;;;;5.30;4.40;;;15.40;99.90;;;;;;5134004;27;20455;-68
2021/09/19 04:34:16;;;;;;;5.03;4.53;;;15.40;99.90;;;;;;5134563;27;20967;-68
2021/09/19 04:36:43;;;;;;;7.17;4.50;;;15.50;99.90;;;;;;5133827;27;20475;-68
2021/09/19 04:39:10;;;;;;;5.67;4.93;;;15.50;99.90;;;;;;5134369;27;20455;-68
2021/09/19 04:41:37;;;;;;;5.07;4.57;;;15.50;99.90;;;;;;5134458;27;20961;-68
2021/09/19 04:44:04;;;;;;;6.17;4.90;;;15.50;99.90;;;;;;5133925;27;20444;-68
2021/09/19 04:46:31;;;;;;;4.30;3.90;;;15.50;99.90;;;;;;5134322;27;20478;-68
2021/09/19 04:48:58;;;;;;;5.90;5.40;;;15.40;99.90;;;;;;5133664;27;20475;-68
2021/09/19 04:51:35;;;;;;;7.73;5.00;;;15.40;99.90;;;;;;5134135;27;20467;-68
2021/09/19 04:54:02;;;;;;;5.20;4.70;;;15.50;99.90;;;;;;5133626;27;20456;-68
2021/09/19 04:56:28;;;;;;;4.90;4.50;;;15.50;99.90;;;;;;5134157;27;20804;-68
2021/09/19 04:58:55;;;;;;;5.70;4.40;;;15.50;99.90;;;;;;5133542;27;20975;-69
2021/09/19 05:01:22;;;;;;;4.13;3.73;;;15.50;99.90;;;;;;5134076;27;20474;-68
2021/09/19 05:03:49;;;;;;;4.57;4.17;;;15.50;99.90;;;;;;5133378;27;20464;-68
2021/09/19 05:06:16;;;;;;;5.00;4.47;;;15.50;99.90;;;;;;5134014;27;20464;-68
2021/09/19 05:08:44;;;;;;;4.07;3.77;;;15.50;99.90;;;;;;5133624;27;20813;-68
2021/09/19 05:11:11;;;;;;;6.43;4.77;;;15.50;99.90;;;;;;5133761;27;20462;-69
2021/09/19 05:13:38;;;;;;;4.30;3.90;;;15.50;99.90;;;;;;5133694;27;20466;-68
2021/09/19 05:16:05;;;;;;;4.53;4.13;;;15.50;99.90;;;;;;5133451;27;20456;-68
2021/09/19 05:18:32;;;;;;;6.03;3.40;;;15.50;99.90;;;;;;5133729;27;20474;-68
2021/09/19 05:21:00;;;;;;;7.20;4.77;;;15.50;99.90;;;;;;5133228;27;20476;-68
2021/09/19 05:23:27;;;;;;;5.90;4.70;;;15.50;99.90;;;;;;5133788;27;20520;-68
2021/09/19 05:25:55;;;;;;;5.20;4.60;;;15.40;99.90;;;;;;5133253;27;20460;-68
2021/09/19 05:28:22;;;;;;;5.30;4.80;;;15.40;99.90;;;;;;5133077;27;20520;-68
2021/09/19 05:30:49;;;;;;;5.00;4.60;;;15.40;99.90;;;;;;5133394;27;20779;-68
2021/09/19 05:33:16;;;;;;;5.20;4.67;;;15.40;99.90;;;;;;5133560;27;20975;-68
2021/09/19 05:35:42;;;;;;;5.07;4.63;;;15.40;99.90;;;;;;5133179;27;20458;-68
2021/09/19 05:38:09;;;;;;;5.97;5.40;;;15.40;99.90;;;;;;5133392;27;20456;-68
2021/09/19 05:40:36;;;;;;;5.30;4.70;;;15.40;99.90;;;;;;5133528;27;20472;-68
2021/09/19 05:43:05;;;;;;;6.70;4.83;;;15.40;99.90;;;;;;5132913;27;20470;-68
2021/09/19 05:45:33;;;;;;;5.63;4.83;;;15.40;99.90;;;;;;5133490;27;20463;-67
2021/09/19 05:48:00;;;;;;;5.90;5.03;;;15.40;99.90;;;;;;5133006;27;20464;-69
2021/09/19 05:50:27;;;;;;;6.13;4.67;;;15.40;99.90;;;;;;5133186;27;20468;-68
2021/09/19 05:52:54;;;;;;;5.80;4.77;;;15.40;99.90;;;;;;5133108;27;20804;-68
2021/09/19 05:55:21;;;;;;;5.47;4.47;;;15.40;99.90;;;;;;5133217;27;20463;-68
2021/09/19 05:57:48;;;;;;;5.03;4.33;;;15.40;99.90;;;;;;5133120;27;20808;-68
2021/09/19 06:00:17;;;;;;;5.20;4.63;;;15.40;99.90;;;;;;5133303;27;20463;-68
2021/09/19 06:02:44;;;;;;;6.63;4.50;;;15.30;99.90;;;;;;5132983;27;20472;-68
2021/09/19 06:05:11;;;;;;;5.60;4.50;;;15.30;99.90;;;;;;5133218;27;20466;-68
2021/09/19 06:07:39;;;;;;;7.37;4.70;;;15.40;99.90;;;;;;5133389;27;20898;-68
2021/09/19 06:10:07;;;;;;;5.10;4.60;;;15.30;99.90;;;;;;5132722;27;20976;-69
2021/09/19 06:12:34;;;;;;;8.83;5.00;;;15.40;99.90;;;;;;5133051;27;20473;-68
2021/09/19 06:15:01;;;;;;;6.03;5.47;;;15.40;99.90;;;;;;5132749;27;20463;-68
2021/09/19 06:17:29;;;;;;;5.00;4.30;;;15.40;99.90;;;;;;5133325;27;20460;-68
2021/09/19 06:19:56;;;;;;;6.30;5.77;;;15.40;99.90;;;;;;5132761;27;20472;-68
2021/09/19 06:22:23;;;;;;;6.13;4.90;;;15.40;99.90;;;;;;5133013;27;20483;-68
2021/09/19 06:24:50;;;;;;;5.97;5.37;;;15.50;99.90;;;;;;5132738;27;20466;-68
2021/09/19 06:27:17;;;;;;;5.70;4.57;;;15.50;99.90;;;;;;5133138;27;20474;-68
2021/09/19 06:29:44;;;;;;;4.63;3.87;;;15.60;99.90;;;;;;5133055;27;20464;-68
2021/09/19 06:32:11;;;;;;;4.03;3.63;;;15.60;99.90;;;;;;5132510;27;20448;-68
2021/09/19 06:34:41;;;;;;;4.67;4.27;;;15.60;99.90;;;;;;5133292;27;20470;-68
2021/09/19 06:37:08;;;;;;;4.30;3.93;;;15.60;99.90;;;;;;5132564;27;20439;-68
2021/09/19 06:39:35;;;;;;;4.40;4.00;;;15.70;99.90;;;;;;5132724;27;20466;-68
2021/09/19 06:42:02;;;;;;;8.63;5.40;;;15.70;99.90;;;;;;5135771;27;20461;-68
2021/09/19 06:44:29;;;;;;;5.37;4.30;;;15.70;99.90;;;;;;5136599;27;20468;-68
2021/09/19 06:46:57;;;;;;;5.00;4.50;;;15.70;99.90;;;;;;5136205;27;20463;-68
2021/09/19 06:49:24;;;;;;;4.03;3.70;;;15.70;99.90;;;;;;5136482;27;21003;-68
2021/09/19 06:51:52;;;;;;;5.27;4.20;;;15.70;99.90;;;;;;5135983;27;20961;-68
2021/09/19 06:54:19;;;;;;;4.60;4.13;;;15.60;99.90;;;;;;5136582;27;20493;-68
2021/09/19 06:56:48;;;;;;;4.70;3.83;;;15.60;99.90;;;;;;5136507;27;20792;-68
2021/09/19 06:59:15;;;;;;;5.47;4.37;;;15.60;99.90;;;;;;5136006;27;20531;-68
2021/09/19 07:01:42;;;;;;;4.50;4.10;;;15.60;99.90;;;;;;5136403;27;20953;-68
2021/09/19 07:04:09;;;;;;;7.23;4.33;;;15.60;99.90;;;;;;5135602;27;20468;-68
2021/09/19 07:06:36;;;;;;;5.60;4.90;;;15.60;99.90;;;;;;5136077;27;20975;-68
2021/09/19 07:09:04;;;;;;;6.97;5.37;;;15.70;99.90;;;;;;5135809;27;20945;-69
2021/09/19 07:11:31;;;;;;;5.07;4.53;;;15.70;99.90;;;;;;5135882;27;20470;-68
2021/09/19 07:13:58;;;;;;;7.23;4.37;;;15.70;99.90;;;;;;5135501;27;20451;-67
2021/09/19 07:16:25;;;;;;;6.50;5.00;;;15.70;99.90;;;;;;5135989;27;20456;-67
2021/09/19 07:18:52;;;;;;;4.70;4.27;;;15.70;99.90;;;;;;5135227;27;20467;-68
2021/09/19 07:21:19;;;;;;;4.97;4.47;;;15.70;99.90;;;;;;5135988;27;20538;-68
2021/09/19 07:23:45;;;;;;;4.60;4.20;;;15.70;99.90;;;;;;5135892;27;20460;-68
2021/09/19 07:26:14;;;;;;;5.57;4.80;;;15.80;99.90;;;;;;5135384;27;20463;-68
2021/09/19 07:28:41;;;;;;;4.47;4.00;;;15.80;99.90;;;;;;5135588;27;20942;-68
2021/09/19 07:31:08;;;;;;;5.57;4.30;;;15.80;99.90;;;;;;5135229;27;20468;-67
2021/09/19 07:33:36;;;;;;;4.63;4.17;;;15.80;99.90;;;;;;5135803;27;20793;-67
2021/09/19 07:36:03;;;;;;;6.97;5.07;;;15.80;99.90;;;;;;5135012;27;20471;-68
2021/09/19 07:38:32;;;;;;;6.20;4.10;;;15.90;99.90;;;;;;5135620;27;20797;-68
2021/09/19 07:41:00;;;;;;;5.63;5.13;;;15.90;99.90;;;;;;5134961;27;20464;-69
2021/09/19 07:43:28;;;;;;;5.97;5.37;;;15.90;99.90;;;;;;5135250;27;20463;-68
2021/09/19 07:45:56;;;;;;;4.80;4.30;;;15.90;99.90;;;;;;5135115;27;20979;-68
2021/09/19 07:48:24;;;;;;;5.50;5.00;;;16.00;99.90;;;;;;5135202;27;20471;-68
2021/09/19 07:50:51;;;;;;;5.90;4.33;;;16.00;99.90;;;;;;5135016;27;20468;-68
2021/09/19 07:53:19;;;;;;;4.87;4.20;;;16.00;99.90;;;;;;5134778;27;20796;-68
2021/09/19 07:55:46;;;;;;;4.67;4.20;;;16.10;99.90;;;;;;5135249;27;20468;-69
2021/09/19 07:58:13;;;;;;;5.40;4.90;;;16.10;99.90;;;;;;5134696;27;20538;-69
2021/09/19 08:00:41;;;;;;;4.93;4.33;;;16.10;99.90;;;;;;5135122;27;20470;-68
2021/09/19 08:03:08;;;;;;;4.50;4.10;;;16.20;99.90;;;;;;5134523;27;20471;-67
2021/09/19 08:05:35;;;;;;;6.90;5.40;;;16.20;99.90;;;;;;5135018;27;20466;-67
2021/09/19 08:08:02;;;;;;;7.43;4.70;;;16.30;99.90;;;;;;5134518;27;20470;-67
2021/09/19 08:10:29;;;;;;;8.50;4.80;;;16.30;99.90;;;;;;5135130;27;20657;-67
2021/09/19 08:12:55;;;;;;;4.63;4.23;;;16.30;99.90;;;;;;5134502;27;20470;-67
2021/09/19 08:15:22;;;;;;;5.70;4.30;;;16.40;99.90;;;;;;5134819;27;20474;-67
2021/09/19 08:17:52;;;;;;;4.80;3.90;;;16.50;99.90;;;;;;5134776;27;20460;-67
2021/09/19 08:20:19;;;;;;;5.23;4.33;;;16.50;99.90;;;;;;5134209;27;20464;-67
2021/09/19 08:22:47;;;;;;;4.53;4.03;;;16.60;99.90;;;;;;5134694;27;20804;-67
2021/09/19 08:25:14;;;;;;;7.53;5.50;;;16.60;99.90;;;;;;5134062;27;20464;-67
2021/09/19 08:27:42;;;;;;;6.00;4.30;;;16.70;99.90;;;;;;5134629;27;20551;-68
2021/09/19 08:30:12;;;;;;;5.30;4.30;;;16.70;99.90;;;;;;5133842;27;20464;-67
2021/09/19 08:32:39;;;;;;;4.83;4.43;;;16.70;99.90;;;;;;5134578;27;20455;-68
2021/09/19 08:35:09;;;;;;;5.50;4.20;;;16.80;99.90;;;;;;5134004;27;20959;-67
2021/09/19 08:37:37;;;;;;;7.30;4.47;;;16.80;99.90;;;;;;5134246;27;20470;-67
2021/09/19 08:40:05;;;;;;;5.70;5.20;;;16.80;99.90;;;;;;5133811;27;20466;-68
2021/09/19 08:42:33;;;;;;;7.17;5.27;;;16.80;99.90;;;;;;5134199;27;20485;-68
2021/09/19 08:45:00;;;;;;;4.80;4.30;;;16.90;99.90;;;;;;5133790;27;20969;-68
2021/09/19 08:47:35;;;;;;;5.90;5.40;;;16.90;99.90;;;;;;5134195;27;20459;-67
2021/09/19 08:50:02;;;;;;;4.33;4.03;;;16.90;99.90;;;;;;5133628;27;20466;-68
2021/09/19 08:52:30;;;;;;;6.27;5.10;;;17.00;99.90;;;;;;5134167;27;20470;-68
2021/09/19 08:54:57;;;;;;;5.83;5.00;;;16.90;99.90;;;;;;5133928;27;20469;-67
2021/09/19 08:57:24;;;;;;;5.13;4.50;;;16.90;99.80;;;;;;5133651;27;20474;-67
2021/09/19 08:59:52;;;;;;;5.93;4.83;;;17.00;99.60;;;;;;5133862;27;20463;-68
2021/09/19 09:02:21;;;;;;;7.30;4.33;;;17.00;99.60;;;;;;5133177;27;20446;-68
2021/09/19 09:04:54;;;;;;;5.50;4.33;;;17.00;99.70;;;;;;5133225;27;20475;-68
2021/09/19 09:07:22;;;;;;;6.27;4.70;;;17.00;99.40;;;;;;5133329;27;20530;-68
2021/09/19 09:09:55;;;;;;;6.90;4.07;;;17.00;99.10;;;;;;5133783;27;20517;-68
2021/09/19 09:12:22;;;;;;;4.90;3.80;;;17.10;98.50;;;;;;5133135;27;20464;-68
2021/09/19 09:14:51;;;;;;;4.30;3.73;;;17.10;97.50;;;;;;5133939;27;20459;-67
2021/09/19 09:17:20;;;;;;;5.80;4.03;;;17.10;97.20;;;;;;5133129;27;20477;-67
2021/09/19 09:19:49;;;;;;;4.83;4.33;;;17.10;97.10;;;;;;5133527;27;20463;-68
2021/09/19 09:22:20;;;;;;;3.80;3.50;;;17.20;96.50;;;;;;5133131;27;20464;-68
2021/09/19 09:25:06;;;;;;;3.93;3.63;;;17.30;96.50;;;;;;5133430;27;20471;-67
2021/09/19 09:27:38;;;;;;;4.83;3.80;;;17.30;96.50;;;;;;5133475;27;20883;-68
2021/09/19 09:30:16;;;;;;;4.10;3.20;;;17.40;96.60;;;;;;5133344;27;20463;-68
2021/09/19 09:32:52;;;;;;;4.50;4.10;;;17.40;95.80;;;;;;5133884;27;20976;-68
2021/09/19 09:35:20;;;;;;;5.33;4.83;;;17.50;95.90;;;;;;5133473;27;20451;-67
2021/09/19 09:37:47;;;;;;;4.40;4.00;;;17.50;96.00;;;;;;5133379;27;20980;-67
2021/09/19 09:40:18;;;;;;;3.87;3.20;;;17.60;95.30;;;;;;5132847;27;20483;-68
2021/09/19 09:43:06;;;;;;;4.23;3.83;;;17.60;94.40;;;;;;5133517;27;20463;-68
2021/09/19 09:45:36;;;;;;;4.00;3.60;;;17.60;94.30;;;;;;5133895;27;20470;-67
2021/09/19 09:48:04;;;;;;;4.20;3.23;;;17.60;94.30;;;;;;5133364;27;20452;-68
2021/09/19 09:50:32;;;;;;;5.30;3.50;;;17.70;93.90;;;;;;5133226;27;20470;-68
2021/09/19 09:53:11;;;;;;;4.47;3.77;;;17.70;94.60;;;;;;5133230;27;20799;-68
2021/09/19 09:55:42;;;;;;;5.47;4.77;;;17.80;94.20;;;;;;5133563;27;20492;-68
2021/09/19 09:58:10;;;;;;;5.20;4.20;;;17.80;94.40;;;;;;5132967;27;20955;-67
2021/09/19 10:00:39;;;;;;;5.10;2.97;;;17.80;92.90;;;;;;5133385;27;20460;-68
2021/09/19 10:03:05;;;;;;;4.10;3.80;;;17.90;92.00;;;;;;5132844;27;20977;-68
2021/09/19 10:05:32;;;;;;;4.00;3.70;;;18.00;91.80;;;;;;5133053;27;20467;-68
2021/09/19 10:08:00;;;;;;;4.47;3.47;;;18.00;91.90;;;;;;5132729;27;20459;-68
2021/09/19 10:10:29;;;;;;;4.43;3.23;;;18.00;91.80;;;;;;5133363;27;20471;-67
2021/09/19 10:12:58;;;;;;;4.20;3.80;;;18.10;91.40;;;;;;5132758;27;20466;-68
2021/09/19 10:15:27;;;;;;;3.70;3.40;;;18.10;91.30;;;;;;5135499;27;20470;-68
2021/09/19 10:17:55;;;;;;;3.60;2.83;;;18.20;91.10;;;;;;5136821;27;20969;-67
2021/09/19 10:20:24;;;;;;;3.00;2.80;;;18.20;91.10;;;;;;5136878;27;20475;-68
2021/09/19 10:22:57;;;;;;;3.27;3.07;;;18.30;91.10;;;;;;5136772;27;20464;-68
2021/09/19 10:25:42;;;;;;;2.80;2.60;;;18.20;90.20;;;;;;5137028;27;20477;-68
2021/09/19 10:28:37;;;;;;;3.70;3.40;;;18.20;90.30;;;;;;5136513;27;20455;-68
2021/09/19 10:31:18;;;;;;;4.33;3.93;;;18.30;90.80;;;;;;5136465;27;20504;-68
2021/09/19 10:33:47;;;;;;;3.40;3.20;;;18.40;91.50;;;;;;5136773;27;20467;-68
2021/09/19 10:36:23;;;;;;;3.60;3.30;;;18.30;91.80;;;;;;5136508;27;20462;-68
2021/09/19 10:38:51;;;;;;;4.83;3.70;;;18.40;91.40;;;;;;5136220;27;20469;-68
2021/09/19 10:41:19;;;;;;;5.63;2.77;;;18.40;90.10;;;;;;5136751;27;20469;-68
2021/09/19 10:43:52;;;;;;;3.07;2.77;;;18.40;88.80;;;;;;5136855;27;20459;-68
2021/09/19 10:46:48;;;;;;;3.60;3.20;;;18.40;89.70;;;;;;5136197;27;20883;-68
2021/09/19 10:49:18;;;;;;;3.40;3.10;;;18.40;87.20;;;;;;5136242;27;20468;-68
2021/09/19 10:52:09;;;;;;;3.70;3.03;;;18.50;87.70;;;;;;5136352;27;20821;-67
2021/09/19 10:54:48;;;;;;;4.10;3.70;;;18.40;86.90;;;;;;5134163;27;20473;-68
2021/09/19 10:57:19;;;;;;;4.30;2.80;;;18.40;86.50;;;;;;5136397;27;21000;-68
2021/09/19 11:00:17;;;;;;;4.40;2.60;;;18.40;85.20;;;;;;5135860;27;20455;-68
2021/09/19 11:03:07;;;;;;;3.93;3.03;;;18.40;86.10;;;;;;5135495;27;20543;-68
2021/09/19 11:05:36;;;;;;;3.23;2.90;;;18.40;86.00;;;;;;5135984;27;20470;-68
2021/09/19 11:08:24;;;;;;;3.50;3.20;;;18.40;86.30;;;;;;5135950;27;20451;-67
2021/09/19 11:11:12;;;;;;;3.43;3.13;;;18.30;86.30;;;;;;5135519;27;20474;-68
2021/09/19 11:13:46;;;;;;;3.40;3.20;;;18.30;87.50;;;;;;5135619;27;20459;-68
2021/09/19 11:16:30;;;;;;;5.97;3.00;;;18.30;88.40;;;;;;5136306;27;20874;-68
2021/09/19 11:18:59;;;;;;;3.70;3.27;;;18.20;88.20;;;;;;5135617;27;20471;-68
2021/09/19 11:21:42;;;;;;;4.57;3.50;;;18.20;88.50;;;;;;5135777;27;20520;-68
2021/09/19 11:24:12;;;;;;;4.90;3.63;;;18.20;89.00;;;;;;5135161;27;20528;-68
2021/09/19 11:26:41;;;;;;;5.43;3.93;;;18.20;89.60;;;;;;5134713;27;20551;-68
2021/09/19 11:29:10;;;;;;;4.77;4.37;;;18.20;90.00;;;;;;5127991;27;20456;-68
2021/09/19 11:31:40;;;;;;;3.60;3.30;;;18.20;89.40;;;;;;5130148;27;20456;-68
2021/09/19 11:34:09;;;;;;;3.50;3.17;;;18.20;89.20;;;;;;5116658;27;20459;-68
2021/09/19 11:36:41;;;;;;;3.80;3.30;;;18.20;88.10;;;;;;5117677;27;20456;-68
2021/09/19 11:39:08;;;;;;;3.57;3.27;;;18.20;88.80;;;;;;5134974;27;20472;-69
2021/09/19 11:41:36;;;;;;;4.03;3.63;;;18.20;89.30;;;;;;5135376;27;20460;-68
2021/09/19 11:44:03;;;;;;;3.40;3.10;;;18.10;89.60;;;;;;5134932;27;20487;-69
2021/09/19 11:46:35;;;;;;;3.13;2.50;;;18.10;89.50;;;;;;5135320;27;20464;-67
2021/09/19 11:49:05;;;;;;;3.27;2.97;;;18.10;91.00;;;;;;5134894;27;20547;-64
2021/09/19 11:51:32;;;;;;;3.70;3.30;;;18.10;90.80;;;;;;5135340;27;20451;-66
2021/09/19 11:53:59;;;;;;;5.67;3.70;;;18.10;90.70;;;;;;5135004;27;20517;-64
2021/09/19 11:56:30;;;;;;;4.33;3.60;;;18.10;90.60;;;;;;5134895;27;20470;-64
2021/09/19 11:58:57;;;;;;;7.50;5.30;;;18.10;90.60;;;;;;5134214;27;20479;-65
2021/09/19 12:01:26;;;;;;;6.47;5.73;;;18.10;90.70;;;;;;5135119;27;20469;-65
2021/09/19 12:03:53;;;;;;;11.47;7.80;;;18.10;90.70;;;;;;5116890;27;20464;-65
2021/09/19 12:06:22;;;;;;;12.30;8.17;;;18.10;90.70;;;;;;5114482;27;20797;-65
2021/09/19 12:08:50;;;;;;;7.77;5.50;;;18.10;90.60;;;;;;5127093;27;20480;-65
2021/09/19 12:11:17;;;;;;;7.60;6.30;;;18.20;90.20;;;;;;5134882;27;20468;-65
2021/09/19 12:13:49;;;;;;;5.10;4.27;;;18.20;90.10;;;;;;5134901;27;20809;-67
2021/09/19 12:16:19;;;;;;;7.07;4.60;;;18.20;90.00;;;;;;5134694;27;20796;-71
2021/09/19 12:18:49;;;;;;;20.73;6.90;;;18.20;90.20;;;;;;5134585;27;20475;-69
2021/09/19 12:21:18;;;;;;;13.03;4.73;;;18.30;91.40;;;;;;5134445;27;20473;-69
2021/09/19 12:23:48;;;;;;;3.93;3.53;;;18.40;90.60;;;;;;5134864;27;20462;-70
2021/09/19 12:26:20;;;;;;;3.87;3.57;;;18.20;93.00;;;;;;5134199;27;20452;-62
2021/09/19 12:28:48;;;;;;;8.90;4.67;;;17.90;94.70;;;;;;5134524;27;20532;-69
2021/09/19 12:31:38;;;;;;;6.20;5.60;;;17.40;95.40;;;;;;5134148;27;20520;-64
2021/09/19 12:34:06;;;;;;;8.60;6.43;;;17.10;97.40;;;;;;5134260;27;20469;-69
2021/09/19 12:36:39;;;;;;;17.10;11.03;;;16.80;98.30;;;;;;5134399;27;20464;-69
2021/09/19 12:39:13;;;;;;;4.93;4.47;;;16.70;98.40;;;;;;5133673;27;20558;-69
2021/09/19 12:41:40;;;;;;;6.87;4.53;;;16.60;98.30;;;;;;5134329;27;20463;-69
2021/09/19 12:44:13;;;;;;;8.37;6.00;;;16.70;98.10;;;;;;5133926;27;20478;-69
2021/09/19 12:46:44;;;;;;;4.90;4.27;;;16.70;98.00;;;;;;5134273;27;20474;-70
2021/09/19 12:49:17;;;;;;;6.90;5.50;;;16.80;97.10;;;;;;5133572;27;20468;-70
2021/09/19 12:52:01;;;;;;;11.73;7.13;;;16.80;97.30;;;;;;5134072;27;20464;-70
2021/09/19 12:54:30;;;;;;;5.33;4.83;;;16.90;97.30;;;;;;5133829;27;21293;-72